Time;durP1;ratioP1;P1;durP2;ratioP2;P2;SDS_P1;SDS_P2;PMS_P1;PMS_P2;Temp;Humidity;BMP_temperature;BMP_pressure;BME280_temperature;BME280_humidity;BME280_pressure;Samples;Min_cycle;Max_cycle;Signal;HPM_P1;HPM_P2
2021/12/25 00:01:30;;;;;;;0.63;0.30;;;;;;;4.43;100.00;99019.84;4964499;28;20547;-69
2021/12/25 00:03:59;;;;;;;2.30;0.30;;;;;;;4.30;100.00;99006.72;4972548;28;20535;-68
2021/12/25 00:06:27;;;;;;;1.15;0.13;;;;;;;4.41;100.00;99030.91;4973073;28;20051;-69
2021/12/25 00:08:56;;;;;;;0.63;0.00;;;;;;;4.42;100.00;99036.88;4956261;28;20158;-69
2021/12/25 00:11:26;;;;;;;3.55;0.20;;;;;;;4.36;100.00;99042.72;4962795;28;20082;-68
2021/12/25 00:13:54;;;;;;;0.08;0.00;;;;;;;4.35;100.00;99041.00;4971796;28;20113;-69
2021/12/25 00:16:23;;;;;;;0.13;0.10;;;;;;;4.33;100.00;99040.09;4960249;28;20051;-68
2021/12/25 00:18:51;;;;;;;0.63;0.38;;;;;;;4.30;100.00;99042.56;4957992;28;20051;-68
2021/12/25 00:21:20;;;;;;;2.70;0.55;;;;;;;4.27;100.00;99047.59;4952035;28;20051;-70
2021/12/25 00:23:51;;;;;;;4.70;2.13;;;;;;;4.24;100.00;99042.41;4963219;28;20130;-71
2021/12/25 00:26:37;;;;;;;10.90;3.72;;;;;;;4.26;100.00;99063.81;4957184;28;20424;-71
2021/12/25 00:29:30;;;;;;;10.40;3.08;;;;;;;4.23;100.00;99056.03;4971165;28;20054;-72
2021/12/25 00:32:10;;;;;;;8.38;2.63;;;;;;;4.26;100.00;99060.34;4940555;28;20074;-73
2021/12/25 00:34:40;;;;;;;3.63;0.70;;;;;;;4.23;100.00;99065.41;4965528;28;20389;-72
2021/12/25 00:37:09;;;;;;;1.35;0.30;;;;;;;4.21;100.00;99065.34;4952383;28;20480;-71
2021/12/25 00:39:38;;;;;;;0.50;0.20;;;;;;;4.19;100.00;99054.19;4965363;28;20051;-72
2021/12/25 00:42:08;;;;;;;0.63;0.20;;;;;;;4.22;100.00;99064.53;4964932;28;20411;-71
2021/12/25 00:44:38;;;;;;;0.52;0.22;;;;;;;4.23;100.00;99070.53;4952075;28;20055;-71
2021/12/25 00:47:07;;;;;;;4.32;0.30;;;;;;;4.25;100.00;99077.41;4957038;28;20047;-71
2021/12/25 00:49:36;;;;;;;0.77;0.15;;;;;;;4.26;100.00;99075.72;4970167;28;20107;-69
2021/12/25 00:52:05;;;;;;;0.05;0.05;;;;;;;4.28;100.00;99068.94;4956514;28;20113;-70
2021/12/25 00:54:34;;;;;;;1.00;0.13;;;;;;;4.32;100.00;99076.75;4959924;28;20413;-69
2021/12/25 00:57:02;;;;;;;1.35;0.30;;;;;;;4.27;100.00;99074.91;4969605;28;20047;-72
2021/12/25 00:59:31;;;;;;;2.65;0.13;;;;;;;4.26;100.00;99070.59;4967799;28;20111;-72
2021/12/25 01:02:01;;;;;;;0.95;0.20;;;;;;;4.15;100.00;99060.94;4967034;28;20050;-70
2021/12/25 01:04:30;;;;;;;2.38;0.43;;;;;;;4.23;100.00;99086.75;4967101;28;20138;-71
2021/12/25 01:06:58;;;;;;;0.00;0.00;;;;;;;4.18;100.00;99089.19;4968092;28;20400;-72
2021/12/25 01:09:34;;;;;;;0.40;0.20;;;;;;;4.17;100.00;99092.56;4955005;28;20567;-72
2021/12/25 01:12:02;;;;;;;0.05;0.00;;;;;;;4.20;100.00;99091.78;4955002;28;20122;-70
2021/12/25 01:14:35;;;;;;;0.57;0.38;;;;;;;4.17;100.00;99096.84;4968369;28;20055;-70
2021/12/25 01:17:27;;;;;;;0.88;0.25;;;;;;;4.17;100.00;99107.06;4966298;28;20137;-70
2021/12/25 01:23:16;;;;;;;0.20;0.15;;;;;;;4.14;100.00;99117.19;4960114;28;20051;-69
2021/12/25 01:26:01;;;;;;;0.22;0.10;;;;;;;4.17;100.00;99122.44;4973976;28;20051;-70
2021/12/25 01:31:20;;;;;;;2.22;0.98;;;;;;;4.10;100.00;99120.50;4968157;28;20509;-70
2021/12/25 01:34:17;;;;;;;0.22;0.22;;;;;;;4.05;100.00;99111.81;4962257;28;20551;-71
2021/12/25 01:39:45;;;;;;;3.42;1.13;;;;;;;3.99;100.00;99108.25;4966227;28;20051;-70
2021/12/25 01:47:47;;;;;;;0.90;0.45;;;;;;;3.86;100.00;99134.31;4943432;28;20058;-72
2021/12/25 01:50:19;;;;;;;5.20;2.17;;;;;;;3.78;100.00;99144.31;4953882;28;20560;-72
2021/12/25 01:52:48;;;;;;;3.38;1.35;;;;;;;3.72;100.00;99145.81;4964998;28;20051;-72
2021/12/25 01:55:21;;;;;;;0.52;0.20;;;;;;;3.73;100.00;99155.22;4956294;28;20560;-72
2021/12/25 01:57:50;;;;;;;1.17;0.30;;;;;;;3.73;100.00;99170.56;4955691;28;20509;-71
2021/12/25 02:00:23;;;;;;;0.30;0.20;;;;;;;3.69;100.00;99169.63;4969573;28;20052;-71
2021/12/25 02:02:53;;;;;;;0.13;0.10;;;;;;;3.68;100.00;99172.97;4969134;28;20105;-72
2021/12/25 02:05:24;;;;;;;0.20;0.10;;;;;;;3.67;100.00;99180.63;4974543;28;20512;-70
2021/12/25 02:07:53;;;;;;;0.10;0.10;;;;;;;3.67;100.00;99181.50;4973833;28;20055;-71
2021/12/25 02:10:21;;;;;;;1.08;0.43;;;;;;;3.70;100.00;99184.13;4959873;28;20059;-69
2021/12/25 02:12:50;;;;;;;0.45;0.10;;;;;;;3.75;100.00;99184.28;4971154;28;20042;-68
2021/12/25 02:15:22;;;;;;;0.10;0.10;;;;;;;3.77;100.00;99196.28;4962387;28;20056;-68
2021/12/25 02:18:04;;;;;;;0.43;0.30;;;;;;;3.80;100.00;99200.63;4967799;28;20101;-69
2021/12/25 02:20:42;;;;;;;1.08;0.40;;;;;;;3.82;100.00;99199.00;4954067;28;20055;-69
2021/12/25 02:23:16;;;;;;;0.15;0.15;;;;;;;3.84;100.00;99199.91;4959063;28;20053;-68
2021/12/25 02:25:57;;;;;;;0.10;0.10;;;;;;;3.90;100.00;99200.13;4960651;28;20061;-68
2021/12/25 02:28:26;;;;;;;0.28;0.10;;;;;;;3.91;100.00;99196.72;4946971;28;20074;-68
2021/12/25 02:30:58;;;;;;;0.20;0.10;;;;;;;3.94;100.00;99201.94;4961278;28;20047;-69
2021/12/25 02:33:28;;;;;;;0.47;0.10;;;;;;;3.96;100.00;99205.44;4953748;28;20043;-69
2021/12/25 02:35:58;;;;;;;0.68;0.20;;;;;;;3.98;100.00;99198.63;4953777;28;20420;-68
2021/12/25 02:38:28;;;;;;;2.28;0.38;;;;;;;4.01;100.00;99205.56;4955724;28;20059;-68
2021/12/25 02:40:57;;;;;;;0.20;0.20;;;;;;;4.03;100.00;99211.56;4963296;28;20047;-68
2021/12/25 02:43:32;;;;;;;0.10;0.10;;;;;;;4.06;100.00;99221.06;4966403;28;20121;-68
2021/12/25 02:46:07;;;;;;;2.92;0.10;;;;;;;4.07;100.00;99215.13;4954332;28;20114;-67
2021/12/25 02:48:37;;;;;;;0.10;0.00;;;;;;;4.07;100.00;99210.00;4969375;28;20043;-67
2021/12/25 02:51:08;;;;;;;2.17;0.30;;;;;;;4.06;100.00;99216.81;4959804;28;20110;-67
2021/12/25 02:53:37;;;;;;;0.10;0.10;;;;;;;3.96;100.00;99204.53;4966741;28;20110;-67
2021/12/25 02:56:06;;;;;;;0.10;0.10;;;;;;;4.07;100.00;99222.78;4963196;28;20043;-67
2021/12/25 02:58:35;;;;;;;0.00;0.00;;;;;;;4.09;100.00;99228.81;4958045;28;20517;-67
2021/12/25 03:01:07;;;;;;;0.47;0.10;;;;;;;4.04;100.00;99241.47;4971399;28;20114;-66
2021/12/25 03:03:36;;;;;;;0.20;0.20;;;;;;;4.00;100.00;99237.09;4971696;28;20078;-69
2021/12/25 03:06:05;;;;;;;0.68;0.17;;;;;;;3.94;100.00;99242.00;4958858;28;20398;-67
2021/12/25 03:08:35;;;;;;;0.57;0.17;;;;;;;3.90;100.00;99237.63;4961230;28;20130;-67
2021/12/25 03:11:06;;;;;;;0.63;0.20;;;;;;;3.84;100.00;99240.84;4971343;28;20051;-66
2021/12/25 03:13:41;;;;;;;1.45;0.10;;;;;;;3.77;100.00;99236.34;4972204;28;20485;-67
2021/12/25 03:16:10;;;;;;;1.00;0.30;;;;;;;3.78;100.00;99246.66;4954602;28;20499;-67
2021/12/25 03:18:46;;;;;;;1.48;0.38;;;;;;;3.78;100.00;99250.91;4952941;28;20055;-67
2021/12/25 03:21:17;;;;;;;0.60;0.52;;;;;;;3.77;100.00;99252.56;4952518;28;20062;-67
2021/12/25 03:23:57;;;;;;;1.17;0.22;;;;;;;3.78;100.00;99245.78;4952718;28;20118;-67
2021/12/25 03:26:25;;;;;;;0.77;0.32;;;;;;;3.79;100.00;99247.50;4953192;28;20111;-67
2021/12/25 03:28:54;;;;;;;0.38;0.32;;;;;;;3.81;100.00;99252.69;4961854;28;20101;-67
2021/12/25 03:31:22;;;;;;;0.20;0.20;;;;;;;3.83;100.00;99266.41;4957178;28;20086;-67
2021/12/25 03:33:53;;;;;;;0.40;0.30;;;;;;;3.81;100.00;99256.09;4952979;28;20560;-66
2021/12/25 03:36:22;;;;;;;0.80;0.40;;;;;;;3.78;100.00;99273.94;4953421;28;20047;-67
2021/12/25 03:38:53;;;;;;;0.55;0.30;;;;;;;3.82;100.00;99278.31;4972276;28;20055;-67
2021/12/25 03:41:22;;;;;;;0.88;0.43;;;;;;;3.84;100.00;99286.03;4960366;28;20051;-66
2021/12/25 03:43:51;;;;;;;0.30;0.30;;;;;;;3.83;100.00;99292.00;4967606;28;20063;-67
2021/12/25 03:46:20;;;;;;;1.13;0.55;;;;;;;3.80;100.00;99285.06;4953043;28;20055;-66
2021/12/25 03:49:07;;;;;;;3.95;0.20;;;;;;;3.87;100.00;99301.47;4966568;28;20505;-68
2021/12/25 03:57:41;;;;;;;0.13;0.13;;;;;;;3.94;100.00;99314.56;4874404;29;20091;-67
2021/12/25 04:00:14;;;;;;;0.40;0.20;;;;;;;3.94;100.00;99306.88;4876284;29;20049;-67
2021/12/25 04:02:53;;;;;;;1.55;0.20;;;;;;;3.91;100.00;99314.44;4930841;28;20116;-67
2021/12/25 04:05:26;;;;;;;0.10;0.10;;;;;;;3.96;100.00;99317.13;4972313;28;20122;-72
2021/12/25 04:08:06;;;;;;;0.00;0.00;;;;;;;3.90;100.00;99322.06;4963398;28;20055;-72
2021/12/25 04:10:38;;;;;;;1.10;0.20;;;;;;;3.84;100.00;99321.88;4966150;28;20043;-74
2021/12/25 04:13:09;;;;;;;1.70;0.10;;;;;;;3.78;100.00;99322.53;4961441;28;20113;-71
2021/12/25 04:15:38;;;;;;;0.85;0.28;;;;;;;3.81;100.00;99317.50;4956375;28;20114;-72
2021/12/25 04:18:07;;;;;;;0.10;0.10;;;;;;;3.79;100.00;99331.94;4952982;29;20151;-71
2021/12/25 04:20:36;;;;;;;0.10;0.10;;;;;;;3.80;100.00;99341.34;4952394;28;20059;-70
2021/12/25 04:23:11;;;;;;;0.95;0.28;;;;;;;3.83;100.00;99346.59;4939171;28;20055;-69
2021/12/25 04:25:42;;;;;;;0.17;0.10;;;;;;;3.86;100.00;99349.25;4952631;28;20047;-69
2021/12/25 04:28:17;;;;;;;1.40;0.38;;;;;;;3.86;100.00;99341.56;4971450;28;20102;-67
2021/12/25 04:31:07;;;;;;;0.40;0.00;;;;;;;3.87;100.00;99352.66;4959556;28;20051;-68
2021/12/25 05:01:42;;;;;;;0.10;0.10;;;;;;;3.81;100.00;99386.59;4958551;28;20142;-69
2021/12/25 05:01:53;;;;;;;3.78;0.28;;;;;;;3.85;100.00;99401.25;4972961;28;20053;-71
2021/12/25 05:04:26;;;;;;;0.30;0.30;;;;;;;3.76;100.00;99406.03;4952429;28;20501;-71
2021/12/25 05:06:54;;;;;;;2.72;0.30;;;;;;;3.77;100.00;99400.09;4960558;28;20054;-71
2021/12/25 05:09:23;;;;;;;1.30;0.20;;;;;;;3.76;100.00;99403.47;4962206;28;20086;-70
2021/12/25 05:11:51;;;;;;;0.50;0.15;;;;;;;3.70;100.00;99405.81;4961682;28;20055;-70
2021/12/25 05:14:21;;;;;;;0.10;0.10;;;;;;;3.68;100.00;99412.56;4968977;28;20110;-70
2021/12/25 05:16:52;;;;;;;2.20;0.17;;;;;;;3.65;100.00;99417.59;4956249;28;20114;-71
2021/12/25 05:19:20;;;;;;;0.40;0.30;;;;;;;3.56;100.00;99421.53;4969164;28;20055;-69
2021/12/25 05:21:49;;;;;;;0.30;0.20;;;;;;;3.52;100.00;99423.94;4955537;28;20063;-71
2021/12/25 05:24:18;;;;;;;0.65;0.30;;;;;;;3.41;100.00;99438.00;4969104;28;20050;-71
2021/12/25 05:26:46;;;;;;;0.73;0.30;;;;;;;3.36;100.00;99433.59;4963560;28;20088;-70
2021/12/25 05:29:22;;;;;;;1.33;0.52;;;;;;;3.30;100.00;99440.19;4974508;28;20107;-70
2021/12/25 05:31:53;;;;;;;2.03;0.75;;;;;;;3.30;100.00;99429.97;4974437;28;20228;-69
2021/12/25 05:34:22;;;;;;;0.40;0.25;;;;;;;3.16;100.00;99431.97;4960409;28;20515;-71
2021/12/25 05:36:51;;;;;;;1.38;0.57;;;;;;;3.05;100.00;99438.38;4947693;28;20055;-72
2021/12/25 05:39:20;;;;;;;0.77;0.55;;;;;;;3.06;100.00;99442.69;4961872;28;20055;-71
2021/12/25 05:41:49;;;;;;;0.93;0.47;;;;;;;3.05;100.00;99441.81;4959606;28;20058;-72
2021/12/25 05:44:17;;;;;;;1.20;0.50;;;;;;;3.05;100.00;99446.91;4963185;28;20055;-71
2021/12/25 05:46:46;;;;;;;0.40;0.38;;;;;;;3.04;100.00;99445.16;4955024;28;20112;-71
2021/12/25 05:49:16;;;;;;;1.05;0.50;;;;;;;3.01;100.00;99445.06;4955036;28;20055;-72
2021/12/25 05:51:44;;;;;;;4.00;0.40;;;;;;;3.01;100.00;99447.59;4957416;28;20062;-72
2021/12/25 05:54:13;;;;;;;1.48;0.50;;;;;;;2.97;100.00;99450.84;4964826;28;20126;-71
2021/12/25 05:56:41;;;;;;;0.38;0.25;;;;;;;3.02;100.00;99451.03;4955486;28;20531;-71
2021/12/25 05:59:10;;;;;;;1.38;0.82;;;;;;;2.91;100.00;99435.31;4967361;28;20055;-69
2021/12/25 06:01:38;;;;;;;0.40;0.20;;;;;;;3.04;100.00;99462.19;4969899;28;20074;-68
2021/12/25 06:04:07;;;;;;;1.95;0.47;;;;;;;3.05;100.00;99463.94;4974589;28;20055;-67
2021/12/25 06:06:37;;;;;;;0.98;0.60;;;;;;;3.07;100.00;99458.06;4962663;28;20051;-67
2021/12/25 06:09:08;;;;;;;0.50;0.43;;;;;;;3.11;100.00;99459.91;4958249;28;20094;-70
2021/12/25 06:11:38;;;;;;;1.33;0.68;;;;;;;3.15;100.00;99469.44;4973888;28;20053;-70
2021/12/25 06:14:10;;;;;;;0.43;0.35;;;;;;;3.19;100.00;99467.03;4973658;28;20097;-69
2021/12/25 06:16:39;;;;;;;4.40;0.30;;;;;;;3.23;100.00;99479.09;4964087;28;20497;-70
2021/12/25 06:19:07;;;;;;;2.22;0.43;;;;;;;3.24;100.00;99480.84;4954019;28;20802;-70
2021/12/25 06:21:38;;;;;;;1.20;0.70;;;;;;;3.25;100.00;99491.16;4962264;28;20109;-69
2021/12/25 06:24:07;;;;;;;1.10;0.50;;;;;;;3.30;100.00;99492.19;4973439;28;20054;-70
2021/12/25 06:26:36;;;;;;;0.68;0.30;;;;;;;3.32;100.00;99479.44;4966400;28;20051;-70
2021/12/25 06:29:05;;;;;;;0.98;0.60;;;;;;;3.34;100.00;99488.94;4967465;28;20656;-71
2021/12/25 06:31:34;;;;;;;0.70;0.55;;;;;;;3.36;100.00;99494.94;4954238;28;20497;-70
2021/12/25 06:34:03;;;;;;;0.68;0.40;;;;;;;3.37;100.00;99503.53;4965592;28;20078;-70
2021/12/25 06:36:32;;;;;;;0.38;0.25;;;;;;;3.42;100.00;99501.13;4959139;28;20082;-70
2021/12/25 06:39:02;;;;;;;0.45;0.40;;;;;;;3.40;100.00;99501.06;4962950;28;20075;-70
2021/12/25 06:41:31;;;;;;;1.95;0.55;;;;;;;3.43;100.00;99500.31;4956337;28;20119;-69
2021/12/25 06:43:59;;;;;;;2.22;0.38;;;;;;;3.43;100.00;99505.41;4964135;28;20051;-70
2021/12/25 06:46:28;;;;;;;0.63;0.50;;;;;;;3.44;100.00;99509.75;4967647;28;20051;-70
2021/12/25 06:48:56;;;;;;;0.98;0.50;;;;;;;3.47;100.00;99515.81;4953943;28;20118;-70
2021/12/25 06:51:25;;;;;;;1.13;0.60;;;;;;;3.50;100.00;99518.47;4953636;29;20106;-70
2021/12/25 06:53:53;;;;;;;1.02;0.40;;;;;;;3.52;100.00;99528.78;4966714;28;20069;-70
2021/12/25 06:56:23;;;;;;;0.75;0.50;;;;;;;3.49;100.00;99533.78;4953389;28;20094;-71
2021/12/25 06:58:52;;;;;;;0.77;0.25;;;;;;;3.48;100.00;99537.16;4966997;28;20082;-71
2021/12/25 07:01:20;;;;;;;0.45;0.43;;;;;;;3.44;100.00;99533.63;4965023;28;20050;-69
2021/12/25 07:03:49;;;;;;;0.70;0.50;;;;;;;3.44;100.00;99535.31;4976341;28;20103;-71
2021/12/25 07:06:17;;;;;;;0.68;0.20;;;;;;;3.42;100.00;99531.81;4973852;28;20043;-69
2021/12/25 07:08:46;;;;;;;1.75;0.60;;;;;;;3.41;100.00;99536.03;4959751;28;20501;-70
2021/12/25 07:11:15;;;;;;;0.80;0.35;;;;;;;3.36;100.00;99535.88;4972837;28;20073;-70
2021/12/25 07:13:46;;;;;;;0.10;0.05;;;;;;;3.32;100.00;99536.59;4972893;28;20101;-71
2021/12/25 07:16:15;;;;;;;0.22;0.20;;;;;;;3.27;100.00;99545.72;4940434;28;20047;-71
2021/12/25 07:18:43;;;;;;;0.28;0.20;;;;;;;3.18;100.00;99544.50;4953691;28;20109;-70
2021/12/25 07:21:12;;;;;;;0.30;0.22;;;;;;;3.14;100.00;99540.97;4966806;28;20055;-70
2021/12/25 07:23:41;;;;;;;1.95;0.43;;;;;;;3.17;100.00;99555.56;4963848;28;20113;-71
2021/12/25 07:26:09;;;;;;;0.73;0.17;;;;;;;3.13;100.00;99570.75;4955724;28;20051;-70
2021/12/25 07:28:38;;;;;;;0.20;0.20;;;;;;;3.13;100.00;99562.22;4962331;28;20078;-70
2021/12/25 07:31:08;;;;;;;0.50;0.30;;;;;;;3.15;100.00;99564.03;4957469;28;20114;-69
2021/12/25 07:33:37;;;;;;;0.10;0.10;;;;;;;3.18;100.00;99570.06;4960463;28;20043;-70
2021/12/25 07:36:06;;;;;;;0.30;0.17;;;;;;;3.15;100.00;99565.72;4972372;28;20129;-69
2021/12/25 07:38:34;;;;;;;0.40;0.20;;;;;;;3.13;100.00;99565.63;4939848;28;20055;-68
2021/12/25 07:41:03;;;;;;;0.52;0.28;;;;;;;3.05;100.00;99584.06;4952830;28;20101;-68
2021/12/25 07:43:31;;;;;;;0.30;0.30;;;;;;;3.06;100.00;99581.53;4970044;28;20105;-68
2021/12/25 07:46:00;;;;;;;0.47;0.20;;;;;;;3.08;100.00;99592.69;4960727;28;20066;-68
2021/12/25 07:48:31;;;;;;;0.20;0.10;;;;;;;3.10;100.00;99583.41;4967295;28;20540;-68
2021/12/25 07:51:02;;;;;;;0.38;0.35;;;;;;;3.10;100.00;99580.88;4959781;28;20051;-68
2021/12/25 07:53:32;;;;;;;0.70;0.30;;;;;;;3.08;100.00;99587.59;4967770;28;20145;-68
2021/12/25 07:56:00;;;;;;;0.38;0.20;;;;;;;3.10;100.00;99580.88;4960454;28;20066;-68
2021/12/25 07:58:29;;;;;;;0.28;0.20;;;;;;;3.11;100.00;99582.59;4958481;28;20055;-68
2021/12/25 08:00:57;;;;;;;0.10;0.10;;;;;;;3.15;100.00;99579.34;4951175;28;20055;-68
2021/12/25 08:03:26;;;;;;;0.68;0.30;;;;;;;3.20;100.00;99581.22;4963629;28;20051;-68
2021/12/25 08:05:56;;;;;;;0.88;0.60;;;;;;;3.20;100.00;99582.09;4957525;28;20059;-69
2021/12/25 08:08:24;;;;;;;1.38;0.50;;;;;;;3.18;100.00;99585.41;4974836;28;20452;-68
2021/12/25 08:10:53;;;;;;;0.20;0.20;;;;;;;3.17;100.00;99586.22;4975750;28;20078;-69
2021/12/25 08:13:21;;;;;;;0.43;0.20;;;;;;;3.12;100.00;99579.25;4975610;28;20042;-69
2021/12/25 08:15:50;;;;;;;0.30;0.30;;;;;;;3.17;100.00;99581.97;4973847;28;20611;-68
2021/12/25 08:18:18;;;;;;;1.10;0.10;;;;;;;3.13;100.00;99590.34;4956502;28;20527;-68
2021/12/25 08:20:47;;;;;;;0.43;0.20;;;;;;;3.06;100.00;99581.53;4970175;28;20459;-68
2021/12/25 08:23:17;;;;;;;0.90;0.32;;;;;;;3.01;100.00;99580.50;4975464;28;20086;-68
2021/12/25 08:25:45;;;;;;;1.45;0.63;;;;;;;2.96;100.00;99592.22;4962983;28;20058;-67
2021/12/25 08:28:14;;;;;;;0.47;0.40;;;;;;;2.99;100.00;99597.44;4969561;28;20572;-68
2021/12/25 08:30:43;;;;;;;0.40;0.25;;;;;;;2.97;100.00;99582.84;4955940;28;20489;-67
2021/12/25 08:33:11;;;;;;;0.30;0.20;;;;;;;2.98;100.00;99590.59;4959313;28;20062;-68
2021/12/25 08:35:39;;;;;;;1.13;0.28;;;;;;;2.96;100.00;99586.25;4975311;28;20578;-67
2021/12/25 08:38:11;;;;;;;0.45;0.30;;;;;;;2.94;100.00;99586.16;4959818;28;20094;-68
2021/12/25 08:40:42;;;;;;;0.57;0.40;;;;;;;2.96;100.00;99586.25;4956195;28;20489;-67
2021/12/25 08:43:11;;;;;;;1.05;0.40;;;;;;;2.96;100.00;99592.22;4955926;28;20557;-68
2021/12/25 08:45:45;;;;;;;1.08;0.22;;;;;;;2.91;100.00;99589.47;4968922;28;20089;-68
2021/12/25 08:48:16;;;;;;;0.47;0.30;;;;;;;2.88;100.00;99588.44;4969601;28;20130;-68
2021/12/25 08:50:48;;;;;;;0.80;0.40;;;;;;;2.88;100.00;99591.00;4946666;29;20043;-67
2021/12/25 08:53:17;;;;;;;0.13;0.13;;;;;;;2.89;100.00;99595.31;4956652;28;20484;-68
2021/12/25 08:55:49;;;;;;;0.10;0.10;;;;;;;2.90;100.00;99597.94;4967557;28;20134;-68
2021/12/25 08:58:18;;;;;;;0.40;0.40;;;;;;;2.89;100.00;99600.44;4956395;28;20087;-68
2021/12/25 09:00:50;;;;;;;0.50;0.20;;;;;;;2.91;100.00;99588.59;4961488;28;20050;-68
2021/12/25 09:03:18;;;;;;;1.92;0.28;;;;;;;2.92;100.00;99580.13;4977475;28;20046;-68
2021/12/25 09:05:47;;;;;;;0.70;0.35;;;;;;;2.95;100.00;99590.44;4978622;28;20047;-68
2021/12/25 09:08:15;;;;;;;1.10;0.10;;;;;;;2.95;100.00;99603.22;4964199;28;20663;-67
2021/12/25 09:10:43;;;;;;;1.25;0.30;;;;;;;2.97;100.00;99593.06;4971673;28;20057;-67
2021/12/25 09:13:14;;;;;;;0.30;0.10;;;;;;;3.01;100.00;99600.94;4974308;28;20093;-67
2021/12/25 09:15:42;;;;;;;0.70;0.40;;;;;;;3.03;100.00;99608.66;4961349;28;20047;-67
2021/12/25 09:18:11;;;;;;;1.23;0.20;;;;;;;3.04;100.00;99597.63;4967689;28;20052;-68
2021/12/25 09:20:39;;;;;;;0.10;0.10;;;;;;;3.08;100.00;99595.25;4969750;28;20137;-68
2021/12/25 09:23:08;;;;;;;0.03;0.00;;;;;;;3.11;100.00;99597.94;4949591;28;20053;-68
2021/12/25 09:25:37;;;;;;;0.32;0.20;;;;;;;3.15;100.00;99599.81;4963359;28;20473;-68
2021/12/25 09:28:05;;;;;;;0.43;0.20;;;;;;;3.20;100.00;99601.69;4955500;28;20102;-68
2021/12/25 09:30:36;;;;;;;0.60;0.30;;;;;;;3.23;100.00;99606.91;4955033;28;20086;-68
2021/12/25 09:33:05;;;;;;;0.88;0.30;;;;;;;3.26;100.00;99612.16;4954439;28;20098;-67
2021/12/25 09:35:33;;;;;;;0.40;0.30;;;;;;;3.26;100.00;99613.03;4955216;28;20095;-68
2021/12/25 09:38:02;;;;;;;0.70;0.32;;;;;;;3.26;100.00;99612.16;4967991;28;20051;-68
2021/12/25 09:40:30;;;;;;;0.20;0.20;;;;;;;3.27;100.00;99616.44;4954794;28;20086;-67
2021/12/25 09:42:59;;;;;;;0.32;0.30;;;;;;;3.26;100.00;99614.72;4967014;28;20452;-67
2021/12/25 09:45:28;;;;;;;0.55;0.20;;;;;;;3.26;100.00;99614.72;4959719;28;20480;-68
2021/12/25 09:47:58;;;;;;;0.28;0.20;;;;;;;3.24;100.00;99619.75;4973586;28;20125;-68
2021/12/25 09:50:26;;;;;;;0.22;0.15;;;;;;;3.24;100.00;99626.56;4965774;28;20074;-67
2021/12/25 09:52:55;;;;;;;0.80;0.30;;;;;;;3.27;100.00;99624.97;4965764;28;20043;-70
2021/12/25 09:55:24;;;;;;;0.52;0.32;;;;;;;3.28;100.00;99633.56;4960097;28;20500;-69
2021/12/25 09:57:52;;;;;;;0.13;0.08;;;;;;;3.27;100.00;99631.78;4963222;28;20496;-68
2021/12/25 10:00:23;;;;;;;1.45;0.30;;;;;;;3.24;100.00;99644.47;4966488;28;20058;-69
2021/12/25 10:02:54;;;;;;;0.22;0.10;;;;;;;3.20;100.00;99642.56;4973240;28;20089;-68
2021/12/25 10:05:29;;;;;;;0.10;0.10;;;;;;;3.14;100.00;99636.41;4963473;28;20090;-68
2021/12/25 10:08:07;;;;;;;0.20;0.10;;;;;;;3.13;100.00;99641.44;4973661;28;20051;-68
2021/12/25 10:10:41;;;;;;;0.50;0.22;;;;;;;3.11;100.00;99641.38;4960490;28;20431;-67
2021/12/25 10:13:21;;;;;;;0.63;0.20;;;;;;;3.05;100.00;99647.94;4973394;28;20102;-68
2021/12/25 10:15:50;;;;;;;1.15;0.57;;;;;;;3.06;100.00;99649.69;4959740;28;20110;-68
2021/12/25 10:18:27;;;;;;;0.10;0.00;;;;;;;3.04;100.00;99662.38;4940489;28;20110;-68
2021/12/25 10:20:57;;;;;;;0.10;0.10;;;;;;;3.05;100.00;99669.25;4966649;28;20090;-68
2021/12/25 10:23:29;;;;;;;0.25;0.15;;;;;;;3.04;100.00;99659.81;4972740;28;20050;-68
2021/12/25 10:26:00;;;;;;;1.85;0.32;;;;;;;3.01;100.00;99659.72;4962260;28;20070;-68
2021/12/25 10:28:33;;;;;;;2.15;0.40;;;;;;;3.04;100.00;99667.50;4954224;28;20047;-67
2021/12/25 10:31:04;;;;;;;0.10;0.10;;;;;;;3.08;100.00;99669.38;4962559;28;20109;-68
2021/12/25 10:33:37;;;;;;;0.10;0.00;;;;;;;3.12;100.00;99683.16;4972580;28;20096;-68
2021/12/25 10:36:10;;;;;;;0.17;0.10;;;;;;;3.01;100.00;99658.84;4972956;28;20050;-68
2021/12/25 10:38:39;;;;;;;0.10;0.10;;;;;;;3.20;100.00;99679.22;4959057;28;20445;-68
2021/12/25 10:41:22;;;;;;;0.03;0.03;;;;;;;3.22;100.00;99679.31;4963904;28;20043;-68
2021/12/25 10:43:53;;;;;;;0.13;0.13;;;;;;;3.23;100.00;99689.59;4966626;28;20556;-68
2021/12/25 10:46:23;;;;;;;1.13;0.40;;;;;;;3.27;100.00;99695.69;4961331;28;20061;-68
2021/12/25 10:48:51;;;;;;;0.50;0.20;;;;;;;3.24;100.00;99695.59;4971242;28;20074;-68
2021/12/25 10:51:32;;;;;;;0.10;0.10;;;;;;;3.24;100.00;99687.91;4952982;29;20465;-68
2021/12/25 10:54:01;;;;;;;0.65;0.10;;;;;;;3.24;100.00;99690.47;4941446;28;20094;-68
2021/12/25 10:56:37;;;;;;;0.03;0.00;;;;;;;3.19;100.00;99679.19;4953311;28;20051;-68
2021/12/25 10:59:08;;;;;;;0.35;0.20;;;;;;;3.33;100.00;99707.06;4971600;28;20089;-67
2021/12/25 11:01:42;;;;;;;0.22;0.10;;;;;;;3.40;100.00;99697.97;4965222;28;20134;-67
2021/12/25 11:04:32;;;;;;;0.57;0.30;;;;;;;3.44;100.00;99701.53;4940506;28;20126;-68
2021/12/25 11:07:15;;;;;;;0.25;0.15;;;;;;;3.43;100.00;99708.31;4956654;28;20051;-68
2021/12/25 11:10:05;;;;;;;0.20;0.20;;;;;;;3.44;100.00;99704.09;4962546;28;20528;-68
2021/12/25 11:12:34;;;;;;;1.38;0.57;;;;;;;3.43;100.00;99708.31;4972168;28;20110;-68
2021/12/25 11:15:15;;;;;;;0.38;0.38;;;;;;;3.39;100.00;99706.44;4961990;28;20086;-68
2021/12/25 11:17:49;;;;;;;0.20;0.17;;;;;;;3.39;100.00;99714.13;4958244;28;20288;-68
2021/12/25 11:20:22;;;;;;;0.68;0.20;;;;;;;3.40;100.00;99718.41;4962082;28;20700;-68
2021/12/25 11:22:55;;;;;;;0.22;0.22;;;;;;;3.42;100.00;99721.03;4971885;28;20053;-68
2021/12/25 11:25:26;;;;;;;0.17;0.08;;;;;;;3.38;100.00;99714.91;4962874;28;20050;-68
2021/12/25 11:27:56;;;;;;;0.22;0.15;;;;;;;3.34;100.00;99710.47;4957302;28;20110;-67
2021/12/25 11:30:28;;;;;;;0.30;0.22;;;;;;;3.27;100.00;99708.47;4972297;28;20082;-68
2021/12/25 11:32:58;;;;;;;4.10;0.55;;;;;;;3.26;100.00;99705.06;4957634;28;20564;-68
2021/12/25 11:35:26;;;;;;;0.75;0.47;;;;;;;3.22;100.00;99702.31;4953592;28;20134;-68
2021/12/25 11:37:58;;;;;;;0.20;0.17;;;;;;;3.21;100.00;99701.44;4939323;28;20062;-68
2021/12/25 11:40:29;;;;;;;0.35;0.30;;;;;;;3.21;100.00;99698.88;4961495;28;20050;-68
2021/12/25 11:43:00;;;;;;;0.40;0.30;;;;;;;3.18;100.00;99701.28;4955510;28;20039;-68
2021/12/25 11:45:33;;;;;;;0.75;0.20;;;;;;;3.15;100.00;99707.16;4953917;28;20062;-68
2021/12/25 11:48:12;;;;;;;0.50;0.30;;;;;;;3.19;100.00;99708.16;4971925;28;20051;-67
2021/12/25 11:50:49;;;;;;;1.38;0.60;;;;;;;3.17;100.00;99719.16;4956142;28;20572;-68
2021/12/25 11:53:24;;;;;;;0.17;0.17;;;;;;;3.11;100.00;99718.06;4961760;28;20047;-69
2021/12/25 11:58:52;;;;;;;0.22;0.10;;;;;;;3.10;100.00;99718.88;4958715;28;20055;-68
2021/12/25 12:01:27;;;;;;;0.30;0.20;;;;;;;3.08;100.00;99710.25;4956452;28;20141;-68
2021/12/25 12:03:57;;;;;;;0.85;0.57;;;;;;;3.07;100.00;99718.75;4971678;28;20050;-68
2021/12/25 12:06:58;;;;;;;0.52;0.30;;;;;;;3.09;100.00;99719.69;4957038;28;20055;-68
2021/12/25 12:09:31;;;;;;;0.30;0.30;;;;;;;3.10;100.00;99724.00;4954419;28;20078;-68
2021/12/25 12:12:18;;;;;;;0.47;0.20;;;;;;;3.08;100.00;99720.50;4962753;28;20043;-67
2021/12/25 12:14:46;;;;;;;1.27;0.50;;;;;;;3.08;100.00;99720.50;4955791;28;20129;-68
2021/12/25 12:17:32;;;;;;;0.32;0.20;;;;;;;3.10;100.00;99718.88;4961633;28;20146;-68
2021/12/25 12:20:03;;;;;;;0.45;0.15;;;;;;;3.08;100.00;99717.94;4948754;28;20092;-68
2021/12/25 12:25:48;;;;;;;0.50;0.30;;;;;;;3.06;100.00;99706.78;4952417;28;20508;-68
2021/12/25 12:28:16;;;;;;;;;;;;;;;3.06;100.00;99709.31;4952924;28;20137;-68
2021/12/25 12:30:48;;;;;;;0.10;0.10;;;;;;;3.06;100.00;99711.88;4957560;28;19954;-68
2021/12/25 12:33:35;;;;;;;3.08;0.22;;;;;;;3.04;100.00;99702.41;4971146;28;20042;-68
2021/12/25 12:36:06;;;;;;;0.80;0.50;;;;;;;2.99;100.00;99709.88;4939496;28;20528;-68
2021/12/25 12:38:40;;;;;;;0.10;0.10;;;;;;;2.98;100.00;99697.91;4965469;28;20102;-68
2021/12/25 12:41:21;;;;;;;0.43;0.30;;;;;;;2.97;100.00;99691.03;4945139;28;20571;-68
2021/12/25 12:43:55;;;;;;;1.52;0.57;;;;;;;2.96;100.00;99684.19;4953462;28;20406;-69
2021/12/25 12:46:24;;;;;;;0.30;0.30;;;;;;;2.96;100.00;99681.66;4952441;28;20627;-68